Portada
METAR-TAF:

METAR-TAF

Aeroports :

Chiang Mai, Tailàndia

latitud: 18-47N, longitud: 098-59E, altitud: 312 m

Observació

L'informe es va fer fa 18 minuts, a les 19:30 UTC
Vent 2 kt amb direcció variable
Temperatura 22°C
Humitat 69%
Pressió 1009 hPa
Visibilitat: 8000 m
Escasses núvols a una alçada de 3500 ft

METAR: VTCC 241930Z VRB02KT 8000 FEW035 22/16 Q1009 NOSIG

Hora: 02:48 (19:48 UTC)

Pronòstic

L'informe es va fer fa 2 hores i 48 minuts, a les 17:00 UTC
Pronòstic vàlid del 24 a les 18 UTC al 25 a les 24 UTC
Vent 5 kt del Sud/Sud-Oest
Visibilitat: 8000 m
Escasses núvols a una alçada de 3500 ft
Evolucionant progressivament
l' 25 a les 09 UTC al 25 a les 11 UTC
Vent 5 kt del Oest

TAF: VTCC 241700Z 2418/2524 20005KT 8000 FEW035 BECMG 2509/2511 26005KT

Observacions i pronòstics meteorològics de més de 4000 aeroports (METAR i TAF).

Les estacions disponibles són els punts grocs i vermells al mapa.

Posi el ratolí al punt desitjat per veure el nom de l'estació.

Feu clic per veure les observacions i els pronòstics meteorològics.

Per canviar el mapa: feu clic els botons verds amb una creu de color negre per apropar; al botó verd amb un guió per allunyar la imatge; o en les fletxes verdes per a mapes adjacents.


METAR-TAF: